createdAt,value
2023-01-08T00:01:17.135Z,100116.00
2023-01-08T00:03:44.244Z,100123.00
2023-01-08T00:06:15.911Z,100112.00
2023-01-08T00:08:43.469Z,100108.00
2023-01-08T00:11:11.392Z,100101.00
2023-01-08T00:13:38.550Z,100101.00
2023-01-08T00:16:15.452Z,100095.00
2023-01-08T00:18:43.178Z,100105.00
2023-01-08T00:21:10.091Z,100097.00
2023-01-08T00:23:38.098Z,100107.00
2023-01-08T00:26:08.589Z,100098.00
2023-01-08T00:28:37.281Z,100098.00
2023-01-08T00:31:06.458Z,100095.00
2023-01-08T00:33:34.095Z,100106.00
2023-01-08T00:36:06.545Z,100089.00
2023-01-08T00:38:33.347Z,100086.00
2023-01-08T00:41:00.193Z,100094.00
2023-01-08T00:43:27.002Z,100088.00
2023-01-08T00:45:54.259Z,100082.00
2023-01-08T00:48:25.164Z,100087.00
2023-01-08T00:50:53.872Z,100085.00
2023-01-08T00:53:22.491Z,100076.00
2023-01-08T00:55:49.886Z,100079.00
2023-01-08T00:58:16.795Z,100073.00
2023-01-08T01:00:43.640Z,100075.00
2023-01-08T01:03:10.504Z,100081.00
2023-01-08T01:05:37.387Z,100077.00
2023-01-08T01:08:04.665Z,100081.00
2023-01-08T01:10:31.473Z,100078.00
2023-01-08T01:12:58.317Z,100077.00
2023-01-08T01:15:25.625Z,100068.00
2023-01-08T01:17:52.533Z,100062.00
2023-01-08T01:20:19.434Z,100055.00
2023-01-08T01:22:46.288Z,100050.00
2023-01-08T01:25:13.238Z,100044.00
2023-01-08T01:27:40.319Z,100055.00
2023-01-08T01:30:08.476Z,100046.00
2023-01-08T01:32:35.880Z,100041.00
2023-01-08T01:35:03.437Z,100045.00
2023-01-08T01:37:30.338Z,100035.00
2023-01-08T01:39:57.960Z,100036.00
2023-01-08T01:42:40.279Z,100042.00
2023-01-08T01:45:16.879Z,100029.00
2023-01-08T01:48:05.848Z,100030.00
2023-01-08T01:50:43.462Z,100027.00
2023-01-08T01:53:38.152Z,100025.00
2023-01-08T01:56:05.888Z,100022.00
2023-01-08T01:58:35.794Z,100022.00
2023-01-08T02:01:08.256Z,100014.00
2023-01-08T02:03:39.356Z,100012.00
2023-01-08T02:06:37.993Z,100012.00
2023-01-08T02:09:31.512Z,100007.00
2023-01-08T02:12:18.353Z,100011.00
2023-01-08T02:15:04.230Z,99998.00
2023-01-08T02:18:18.458Z,100002.00
2023-01-08T02:20:57.109Z,100007.00
2023-01-08T02:24:29.000Z,100015.00
2023-01-08T02:26:59.479Z,100000.00
2023-01-08T02:29:29.007Z,100000.00
2023-01-08T02:31:56.573Z,100004.00
2023-01-08T02:34:23.447Z,100004.00
2023-01-08T02:36:56.988Z,99997.00
2023-01-08T02:39:56.165Z,99991.00
2023-01-08T02:42:57.203Z,99987.00
2023-01-08T02:45:36.846Z,99990.00
2023-01-08T02:48:14.974Z,99983.00
2023-01-08T02:51:08.437Z,99988.00
2023-01-08T02:53:43.534Z,99976.00
2023-01-08T02:56:19.301Z,99983.00
2023-01-08T02:58:48.433Z,99986.00
2023-01-08T03:01:17.864Z,99961.00
2023-01-08T03:03:51.302Z,99977.00
2023-01-08T03:06:20.998Z,99985.00
2023-01-08T03:08:52.721Z,99983.00
2023-01-08T03:11:27.441Z,99979.00
2023-01-08T03:14:19.164Z,99976.00
2023-01-08T03:16:54.825Z,99972.00
2023-01-08T03:19:57.590Z,99983.00
2023-01-08T03:22:24.992Z,99979.00
2023-01-08T03:24:55.422Z,99975.00
2023-01-08T03:27:29.473Z,99975.00
2023-01-08T03:29:59.220Z,99975.00
2023-01-08T03:32:29.801Z,99960.00
2023-01-08T03:34:58.935Z,99953.00
2023-01-08T03:37:34.906Z,99955.00
2023-01-08T03:40:26.350Z,99959.00
2023-01-08T03:42:53.337Z,99960.00
2023-01-08T03:45:24.017Z,99953.00
2023-01-08T03:47:52.067Z,99950.00
2023-01-08T03:50:27.287Z,99960.00
2023-01-08T03:52:54.306Z,99961.00
2023-01-08T03:55:21.482Z,99958.00
2023-01-08T03:57:48.362Z,99956.00
2023-01-08T04:00:16.476Z,99953.00
2023-01-08T04:02:43.898Z,99958.00
2023-01-08T04:05:11.543Z,99938.00
2023-01-08T04:07:38.457Z,99946.00
2023-01-08T04:10:08.876Z,99939.00
2023-01-08T04:12:35.783Z,99944.00
2023-01-08T04:15:02.742Z,99939.00
2023-01-08T04:17:29.955Z,99920.00
2023-01-08T04:19:57.083Z,99943.00
2023-01-08T04:22:23.915Z,99931.00
2023-01-08T04:24:50.723Z,99938.00
2023-01-08T04:27:17.608Z,99932.00
2023-01-08T04:29:44.446Z,99924.00
2023-01-08T04:32:11.290Z,99936.00
2023-01-08T04:34:38.394Z,99936.00
2023-01-08T04:37:05.525Z,99927.00
2023-01-08T04:39:32.582Z,99925.00
2023-01-08T04:41:59.441Z,99930.00
2023-01-08T04:44:26.421Z,99922.00
2023-01-08T04:46:53.391Z,99924.00
2023-01-08T04:49:20.293Z,99907.00
2023-01-08T04:51:47.113Z,99894.00
2023-01-08T04:54:14.049Z,99902.00
2023-01-08T04:56:40.862Z,99907.00
2023-01-08T04:59:07.666Z,99895.00
2023-01-08T05:01:34.959Z,99899.00
2023-01-08T05:04:04.607Z,99904.00
2023-01-08T05:06:32.995Z,99895.00
2023-01-08T05:09:00.150Z,99889.00
2023-01-08T05:11:27.066Z,99864.00
2023-01-08T05:13:54.567Z,99852.00
2023-01-08T05:16:22.195Z,99840.00
2023-01-08T05:18:49.080Z,99837.00
2023-01-08T05:21:16.630Z,99845.00
2023-01-08T05:23:47.810Z,99851.00
2023-01-08T05:26:17.035Z,99863.00
2023-01-08T05:28:44.094Z,99875.00
2023-01-08T05:31:14.574Z,99867.00
2023-01-08T05:33:42.120Z,99888.00
2023-01-08T05:36:11.822Z,99885.00
2023-01-08T05:38:39.377Z,99860.00
2023-01-08T05:54:42.105Z,99828.00
2023-01-08T05:57:08.886Z,99833.00
2023-01-08T05:59:35.754Z,99826.00
2023-01-08T06:02:02.594Z,99796.00
2023-01-08T06:04:29.516Z,99795.00
2023-01-08T06:06:56.475Z,99810.00
2023-01-08T06:09:23.337Z,99787.00
2023-01-08T06:11:50.141Z,99785.00
2023-01-08T06:14:17.177Z,99785.00
2023-01-08T06:16:44.567Z,99774.00
2023-01-08T06:19:12.430Z,99782.00
2023-01-08T06:21:39.236Z,99786.00
2023-01-08T06:24:06.364Z,99769.00
2023-01-08T06:26:33.203Z,99768.00
2023-01-08T06:29:00.675Z,99772.00
2023-01-08T06:31:27.620Z,99750.00
2023-01-08T06:33:54.509Z,99760.00
2023-01-08T06:36:21.407Z,99755.00
2023-01-08T06:38:48.256Z,99755.00
2023-01-08T06:41:15.115Z,99756.00
2023-01-08T06:43:41.925Z,99754.00
2023-01-08T06:46:10.254Z,99769.00
2023-01-08T06:48:37.879Z,99769.00
2023-01-08T06:51:05.270Z,99763.00
2023-01-08T06:53:32.323Z,99782.00
2023-01-08T06:55:59.494Z,99798.00
2023-01-08T06:58:29.020Z,99799.00
2023-01-08T07:00:56.306Z,99800.00
2023-01-08T07:03:23.201Z,99804.00
2023-01-08T07:05:50.823Z,99806.00
2023-01-08T07:08:19.135Z,99810.00
2023-01-08T07:10:46.171Z,99800.00
2023-01-08T07:13:13.499Z,99798.00
2023-01-08T07:15:41.892Z,99794.00
2023-01-08T07:18:11.753Z,99791.00
2023-01-08T07:20:39.633Z,99780.00
2023-01-08T07:23:12.023Z,99785.00
2023-01-08T07:25:39.250Z,99794.00
2023-01-08T07:28:06.703Z,99778.00
2023-01-08T07:30:33.543Z,99797.00
2023-01-08T07:33:01.689Z,99788.00
2023-01-08T07:35:29.409Z,99789.00
2023-01-08T07:37:56.541Z,99779.00
2023-01-08T07:40:23.717Z,99783.00
2023-01-08T07:43:03.485Z,99800.00
2023-01-08T07:45:31.170Z,99801.00
2023-01-08T07:47:59.114Z,99797.00
2023-01-08T07:50:27.098Z,99787.00
2023-01-08T07:53:01.085Z,99776.00
2023-01-08T07:55:30.471Z,99777.00
2023-01-08T07:57:57.469Z,99774.00
2023-01-08T08:00:24.367Z,99776.00
2023-01-08T08:02:51.358Z,99758.00
2023-01-08T08:05:18.374Z,99779.00
2023-01-08T08:07:45.262Z,99779.00
2023-01-08T08:10:12.145Z,99775.00
2023-01-08T08:12:38.977Z,99773.00
2023-01-08T08:15:06.856Z,99767.00
2023-01-08T08:17:33.686Z,99765.00
2023-01-08T08:20:00.536Z,99752.00
2023-01-08T08:22:27.502Z,99741.00
2023-01-08T08:24:54.410Z,99739.00
2023-01-08T08:27:21.368Z,99726.00
2023-01-08T08:29:48.172Z,99726.00
2023-01-08T08:32:15.078Z,99746.00
2023-01-08T08:34:41.926Z,99750.00
2023-01-08T08:37:09.550Z,99712.00
2023-01-08T08:39:36.962Z,99737.00
2023-01-08T08:42:03.913Z,99741.00
2023-01-08T08:44:30.776Z,99737.00
2023-01-08T08:46:57.730Z,99716.00
2023-01-08T08:49:24.882Z,99722.00
2023-01-08T08:51:53.115Z,99710.00
2023-01-08T08:54:19.981Z,99702.00
2023-01-08T08:56:49.079Z,99696.00
2023-01-08T08:59:15.920Z,99707.00
2023-01-08T09:01:42.859Z,99711.00
2023-01-08T09:04:09.802Z,99710.00
2023-01-08T09:06:36.659Z,99707.00
2023-01-08T09:09:03.950Z,99704.00
2023-01-08T09:11:32.604Z,99715.00
2023-01-08T09:13:59.452Z,99733.00
2023-01-08T09:16:26.940Z,99714.00
2023-01-08T09:18:53.936Z,99709.00
2023-01-08T09:21:20.891Z,99710.00
2023-01-08T09:23:49.719Z,99712.00
2023-01-08T09:26:16.552Z,99711.00
2023-01-08T09:28:43.750Z,99707.00
2023-01-08T09:31:10.777Z,99710.00
2023-01-08T09:33:37.640Z,99702.00
2023-01-08T09:36:04.842Z,99706.00
2023-01-08T09:38:31.695Z,99699.00
2023-01-08T09:41:28.497Z,99692.00
2023-01-08T09:43:58.437Z,99687.00
2023-01-08T09:46:28.753Z,99678.00
2023-01-08T09:49:01.620Z,99676.00
2023-01-08T09:51:35.335Z,99678.00
2023-01-08T09:54:03.779Z,99668.00
2023-01-08T09:56:30.801Z,99674.00
2023-01-08T09:59:01.754Z,99672.00
2023-01-08T10:01:34.667Z,99667.00
2023-01-08T10:04:06.280Z,99675.00
2023-01-08T10:06:33.972Z,99672.00
2023-01-08T10:09:01.044Z,99685.00
2023-01-08T10:11:44.191Z,99669.00
2023-01-08T10:14:33.952Z,99655.00
2023-01-08T10:17:28.032Z,99640.00
2023-01-08T10:19:55.084Z,99647.00
2023-01-08T10:22:25.667Z,99657.00
2023-01-08T10:24:53.077Z,99653.00
2023-01-08T10:27:23.872Z,99643.00
2023-01-08T10:29:52.009Z,99644.00
2023-01-08T10:32:29.943Z,99640.00
2023-01-08T10:34:58.659Z,99647.00
2023-01-08T10:37:31.829Z,99634.00
2023-01-08T10:40:42.139Z,99632.00
2023-01-08T10:43:26.604Z,99626.00
2023-01-08T10:46:02.761Z,99619.00
2023-01-08T10:48:45.101Z,99624.00
2023-01-08T10:51:21.829Z,99621.00
2023-01-08T10:53:48.786Z,99618.00
2023-01-08T10:56:25.766Z,99623.00
2023-01-08T10:58:53.522Z,99622.00
2023-01-08T11:01:30.560Z,99609.00
2023-01-08T11:04:01.439Z,99616.00
2023-01-08T11:06:45.238Z,99611.00
2023-01-08T11:09:25.683Z,99621.00
2023-01-08T11:11:52.633Z,99609.00
2023-01-08T11:14:36.066Z,99617.00
2023-01-08T11:17:12.921Z,99601.00
2023-01-08T11:19:40.056Z,99589.00
2023-01-08T11:22:23.639Z,99587.00
2023-01-08T11:24:53.495Z,99587.00
2023-01-08T11:27:29.377Z,99584.00
2023-01-08T11:30:19.709Z,99580.00
2023-01-08T11:32:51.610Z,99561.00
2023-01-08T11:35:33.226Z,99578.00
2023-01-08T11:38:02.883Z,99569.00
2023-01-08T11:40:55.239Z,99577.00
2023-01-08T11:43:46.503Z,99567.00
2023-01-08T11:46:52.342Z,99549.00
2023-01-08T11:50:01.065Z,99525.00
2023-01-08T11:52:59.062Z,99539.00
2023-01-08T11:55:25.918Z,99531.00
2023-01-08T11:58:23.144Z,99540.00
2023-01-08T12:00:58.891Z,99536.00
2023-01-08T12:03:44.793Z,99526.00
2023-01-08T12:07:02.109Z,99539.00
2023-01-08T12:09:46.330Z,99547.00
2023-01-08T12:12:43.813Z,99547.00
2023-01-08T12:15:26.415Z,99543.00
2023-01-08T12:18:57.612Z,99535.00
2023-01-08T12:21:33.216Z,99544.00
2023-01-08T12:24:44.312Z,99534.00
2023-01-08T12:27:13.913Z,99528.00
2023-01-08T12:30:08.319Z,99528.00
2023-01-08T12:32:48.430Z,99520.00
2023-01-08T12:35:24.873Z,99522.00
2023-01-08T12:38:30.719Z,99521.00
2023-01-08T12:41:06.201Z,99510.00
2023-01-08T12:44:01.145Z,99506.00
2023-01-08T12:46:35.797Z,99504.00
2023-01-08T12:49:08.008Z,99495.00
2023-01-08T12:51:59.518Z,99481.00
2023-01-08T12:54:39.517Z,99486.00
2023-01-08T12:57:25.265Z,99413.00
2023-01-08T13:00:37.743Z,99484.00
2023-01-08T13:03:14.996Z,99476.00
2023-01-08T13:05:43.539Z,99475.00
2023-01-08T13:08:35.941Z,99467.00
2023-01-08T13:11:03.916Z,99468.00
2023-01-08T13:13:45.196Z,99462.00
2023-01-08T13:16:12.040Z,99466.00
2023-01-08T13:18:39.575Z,99464.00
2023-01-08T13:21:11.062Z,99461.00
2023-01-08T13:23:38.437Z,99464.00
2023-01-08T13:26:07.699Z,99462.00
2023-01-08T13:28:37.615Z,99461.00
2023-01-08T13:31:28.674Z,99451.00
2023-01-08T13:33:56.481Z,99441.00
2023-01-08T13:36:29.208Z,99452.00
2023-01-08T13:39:24.892Z,99440.00
2023-01-08T13:42:13.632Z,99447.00
2023-01-08T13:44:47.563Z,99432.00
2023-01-08T13:47:29.872Z,99429.00
2023-01-08T13:49:58.542Z,99428.00
2023-01-08T13:52:42.627Z,99436.00
2023-01-08T13:55:24.187Z,99441.00
2023-01-08T13:58:51.332Z,99432.00
2023-01-08T14:01:19.404Z,99421.00
2023-01-08T14:03:48.638Z,99418.00
2023-01-08T14:06:28.293Z,99416.00
2023-01-08T14:09:04.351Z,99423.00
2023-01-08T14:11:42.992Z,99418.00
2023-01-08T14:14:17.173Z,99419.00
2023-01-08T14:16:46.257Z,99423.00
2023-01-08T14:19:23.383Z,99410.00
2023-01-08T14:21:56.708Z,99428.00
2023-01-08T14:24:26.392Z,99416.00
2023-01-08T14:26:58.978Z,99430.00
2023-01-08T14:29:30.806Z,99440.00
2023-01-08T14:32:01.608Z,99421.00
2023-01-08T14:34:31.609Z,99424.00
2023-01-08T14:36:58.695Z,99398.00
2023-01-08T14:39:31.543Z,99395.00
2023-01-08T14:42:27.175Z,99391.00
2023-01-08T14:45:07.288Z,99405.00
2023-01-08T14:47:40.054Z,99402.00
2023-01-08T14:50:18.519Z,99413.00
2023-01-08T14:52:46.345Z,99400.00
2023-01-08T14:55:18.663Z,99385.00
2023-01-08T14:57:52.605Z,99384.00
2023-01-08T15:00:28.640Z,99397.00
2023-01-08T15:03:02.549Z,99397.00
2023-01-08T15:05:33.007Z,99407.00
2023-01-08T15:08:25.981Z,99413.00
2023-01-08T15:11:24.985Z,99417.00
2023-01-08T15:13:56.526Z,99405.00
2023-01-08T15:16:39.028Z,99390.00
2023-01-08T15:19:25.873Z,99396.00
2023-01-08T15:22:00.122Z,99381.00
2023-01-08T15:24:31.978Z,99381.00
2023-01-08T15:27:09.884Z,99377.00
2023-01-08T15:29:49.161Z,99393.00
2023-01-08T15:32:16.013Z,99387.00
2023-01-08T15:34:45.087Z,99385.00
2023-01-08T15:37:13.848Z,99391.00
2023-01-08T15:39:42.150Z,99386.00
2023-01-08T15:42:50.338Z,99383.00
2023-01-08T15:45:28.124Z,99394.00
2023-01-08T15:47:55.656Z,99386.00
2023-01-08T15:50:27.455Z,99388.00
2023-01-08T15:52:56.835Z,99380.00
2023-01-08T15:55:25.114Z,99397.00
2023-01-08T15:57:52.335Z,99399.00
2023-01-08T16:00:22.450Z,99394.00
2023-01-08T16:02:52.200Z,99393.00
2023-01-08T16:05:22.030Z,99396.00
2023-01-08T16:07:49.005Z,99396.00
2023-01-08T16:10:17.420Z,99389.00
2023-01-08T16:12:45.712Z,99364.00
2023-01-08T16:15:15.050Z,99395.00
2023-01-08T16:17:42.943Z,99388.00
2023-01-08T16:20:11.362Z,99389.00
2023-01-08T16:22:38.359Z,99400.00
2023-01-08T16:25:05.949Z,99414.00
2023-01-08T16:27:33.562Z,99380.00
2023-01-08T16:30:00.523Z,99394.00
2023-01-08T16:32:27.639Z,99381.00
2023-01-08T16:34:54.982Z,99379.00
2023-01-08T16:37:22.854Z,99385.00
2023-01-08T16:39:49.882Z,99370.00
2023-01-08T16:42:16.905Z,99385.00
2023-01-08T16:44:43.994Z,99377.00
2023-01-08T16:47:10.906Z,99368.00
2023-01-08T16:49:37.719Z,99353.00
2023-01-08T16:52:04.889Z,99349.00
2023-01-08T16:54:33.049Z,99338.00
2023-01-08T16:57:00.008Z,99339.00
2023-01-08T16:59:27.294Z,99339.00
2023-01-08T17:01:54.767Z,99333.00
2023-01-08T17:04:22.023Z,99336.00
2023-01-08T17:06:49.215Z,99347.00
2023-01-08T17:09:16.151Z,99343.00
2023-01-08T17:11:43.593Z,99330.00
2023-01-08T17:14:10.644Z,99334.00
2023-01-08T17:16:37.711Z,99331.00
2023-01-08T17:19:04.930Z,99242.00
2023-01-08T17:21:33.619Z,99329.00
2023-01-08T17:24:00.789Z,99327.00
2023-01-08T17:26:27.717Z,99325.00
2023-01-08T17:28:55.066Z,99330.00
2023-01-08T17:31:22.423Z,99341.00
2023-01-08T17:33:50.808Z,99343.00
2023-01-08T17:36:20.385Z,99336.00
2023-01-08T17:38:49.370Z,99353.00
2023-01-08T17:41:36.222Z,99347.00
2023-01-08T17:44:06.921Z,99340.00
2023-01-08T17:46:42.306Z,99362.00
2023-01-08T17:49:11.353Z,99331.00
2023-01-08T17:51:40.773Z,99358.00
2023-01-08T17:54:17.081Z,99352.00
2023-01-08T17:56:44.440Z,99365.00
2023-01-08T17:59:15.829Z,99375.00
2023-01-08T18:01:45.226Z,99358.00
2023-01-08T18:04:14.446Z,99362.00
2023-01-08T18:06:47.434Z,99345.00
2023-01-08T18:09:15.209Z,99347.00
2023-01-08T18:11:43.243Z,99347.00
2023-01-08T18:14:13.168Z,99356.00
2023-01-08T18:16:45.177Z,99355.00
2023-01-08T18:19:17.001Z,99335.00
2023-01-08T18:21:44.707Z,99355.00
2023-01-08T18:24:12.518Z,99344.00
2023-01-08T18:26:40.468Z,99317.00
2023-01-08T18:29:07.864Z,99345.00
2023-01-08T18:31:34.868Z,99345.00
2023-01-08T18:34:03.918Z,99316.00
2023-01-08T18:36:30.972Z,99345.00
2023-01-08T18:38:57.952Z,99329.00
2023-01-08T18:41:43.490Z,99337.00
2023-01-08T18:44:11.199Z,99329.00
2023-01-08T18:46:38.476Z,99332.00
2023-01-08T18:49:06.479Z,99321.00
2023-01-08T18:51:33.890Z,99344.00
2023-01-08T18:54:01.035Z,99335.00
2023-01-08T18:56:32.073Z,99320.00
2023-01-08T18:59:00.016Z,99324.00
2023-01-08T19:01:28.483Z,99326.00
2023-01-08T19:03:56.647Z,99325.00
2023-01-08T19:06:23.940Z,99317.00
2023-01-08T19:08:51.615Z,99323.00
2023-01-08T19:11:18.963Z,99326.00
2023-01-08T19:13:46.129Z,99325.00
2023-01-08T19:16:14.146Z,99318.00
2023-01-08T19:18:41.329Z,99318.00
2023-01-08T19:21:10.184Z,99322.00
2023-01-08T19:23:37.194Z,99323.00
2023-01-08T19:26:08.935Z,99307.00
2023-01-08T19:28:36.316Z,99322.00
2023-01-08T19:31:05.063Z,99319.00
2023-01-08T19:33:32.041Z,99318.00
2023-01-08T19:36:08.715Z,99318.00
2023-01-08T19:38:35.751Z,99309.00
2023-01-08T19:41:03.260Z,99312.00
2023-01-08T19:43:42.664Z,99313.00
2023-01-08T19:46:15.422Z,99313.00
2023-01-08T19:48:44.124Z,99322.00
2023-01-08T19:51:13.090Z,99310.00
2023-01-08T19:53:40.472Z,99306.00
2023-01-08T19:56:13.715Z,99304.00
2023-01-08T19:58:41.601Z,99305.00
2023-01-08T20:01:21.754Z,99298.00
2023-01-08T20:03:49.395Z,99284.00
2023-01-08T20:06:24.584Z,99306.00
2023-01-08T20:08:58.223Z,99300.00
2023-01-08T20:11:26.724Z,99309.00
2023-01-08T20:13:55.591Z,99298.00
2023-01-08T20:16:24.637Z,99297.00
2023-01-08T20:18:56.550Z,99281.00
2023-01-08T20:21:24.057Z,99285.00
2023-01-08T20:24:06.986Z,99284.00
2023-01-08T20:26:36.470Z,99286.00
2023-01-08T20:29:04.609Z,99287.00
2023-01-08T20:31:34.419Z,99282.00
2023-01-08T20:34:06.039Z,99275.00
2023-01-08T20:36:34.833Z,99281.00
2023-01-08T20:39:09.774Z,99285.00
2023-01-08T20:41:36.730Z,99290.00
2023-01-08T20:44:06.919Z,99280.00
2023-01-08T20:46:37.219Z,99283.00
2023-01-08T20:49:10.176Z,99275.00
2023-01-08T20:51:44.093Z,99280.00
2023-01-08T20:54:16.265Z,99273.00
2023-01-08T20:56:44.861Z,99272.00
2023-01-08T20:59:12.280Z,99267.00
2023-01-08T21:01:39.244Z,99265.00
2023-01-08T21:04:08.795Z,99255.00
2023-01-08T21:06:36.960Z,99248.00
2023-01-08T21:09:08.538Z,99246.00
2023-01-08T21:11:38.930Z,99238.00
2023-01-08T21:14:08.056Z,99228.00
2023-01-08T21:16:36.556Z,99245.00
2023-01-08T21:19:04.056Z,99238.00
2023-01-08T21:21:34.944Z,99243.00
2023-01-08T21:24:05.004Z,99243.00
2023-01-08T21:26:33.957Z,99243.00
2023-01-08T21:29:06.304Z,99249.00
2023-01-08T21:31:34.032Z,99246.00
2023-01-08T21:34:03.155Z,99233.00
2023-01-08T21:36:32.053Z,99223.00
2023-01-08T21:39:01.089Z,99222.00
2023-01-08T21:41:49.133Z,99207.00
2023-01-08T21:44:40.646Z,99187.00
2023-01-08T21:47:13.176Z,99217.00
2023-01-08T21:49:41.092Z,99186.00
2023-01-08T21:52:26.894Z,99214.00
2023-01-08T21:54:54.007Z,99202.00
2023-01-08T21:57:21.174Z,99207.00
2023-01-08T21:59:51.645Z,99193.00
2023-01-08T22:02:22.529Z,99190.00
2023-01-08T22:04:49.423Z,99169.00
2023-01-08T22:07:16.963Z,99164.00
2023-01-08T22:09:44.158Z,99155.00
2023-01-08T22:12:11.039Z,99163.00
2023-01-08T22:14:38.195Z,99149.00
2023-01-08T22:17:08.342Z,99153.00
2023-01-08T22:19:38.730Z,99155.00
2023-01-08T22:22:09.467Z,99139.00
2023-01-08T22:24:37.475Z,99138.00
2023-01-08T22:27:04.387Z,99137.00
2023-01-08T22:29:31.587Z,99143.00
2023-01-08T22:31:58.433Z,99135.00
2023-01-08T22:34:32.342Z,99138.00
2023-01-08T22:36:59.634Z,99130.00
2023-01-08T22:39:27.155Z,99109.00
2023-01-08T22:41:54.019Z,99098.00
2023-01-08T22:44:20.919Z,99107.00
2023-01-08T22:46:47.810Z,99099.00
2023-01-08T22:49:15.328Z,99092.00
2023-01-08T22:51:45.701Z,99112.00
2023-01-08T22:54:14.376Z,99113.00
2023-01-08T22:56:41.313Z,99103.00
2023-01-08T22:59:08.315Z,99118.00
2023-01-08T23:01:35.328Z,99121.00
2023-01-08T23:04:03.519Z,99101.00
2023-01-08T23:06:32.388Z,99116.00
2023-01-08T23:09:00.191Z,99111.00
2023-01-08T23:11:28.182Z,99127.00
2023-01-08T23:13:55.648Z,99132.00
2023-01-08T23:16:25.346Z,99114.00
2023-01-08T23:18:56.164Z,99123.00
2023-01-08T23:21:25.923Z,99127.00
2023-01-08T23:23:56.253Z,99119.00
2023-01-08T23:26:27.917Z,99110.00
2023-01-08T23:28:56.876Z,99105.00
2023-01-08T23:31:27.805Z,99098.00
2023-01-08T23:33:55.292Z,99106.00
2023-01-08T23:36:23.416Z,99111.00
2023-01-08T23:38:53.822Z,99110.00
2023-01-08T23:41:30.964Z,99107.00
2023-01-08T23:44:02.541Z,99121.00
2023-01-08T23:46:29.410Z,99124.00
2023-01-08T23:48:56.772Z,99124.00
2023-01-08T23:51:24.490Z,99110.00
2023-01-08T23:53:51.563Z,99103.00
2023-01-08T23:56:20.639Z,99104.00
2023-01-08T23:58:48.870Z,99111.00
